Latest Coastal Weather Observations for Portland Harbour

IDV60701

Issued at 5:02 pm EST Tuesday 27 September 2016 (issued every 10 minutes, with the page automatically refreshed every 10 minutes)

About coastal observations | Map of coastal stations | Coastal observations for VIC | Marine services | Other Formats
Station Details ID: 090192 Name: PORTLAND NTC AWS Lat: -38.34 Lon: 141.61 Height: 0.0 m
Data from the previous 72 hours. | See also: Recent months for locations in Victoria
Date/Time
EST
Temp
°C
Wind Pressure Rain since
9am
mm
Weather Cloud Vis
km
Sea
Height
m
Swell
Dir  Spd
kts
Gust
kts
hPa Trend Height
m
Period
s
Dir
27/05:00pm 14.3 W 12 18 1011.0 - - - - - - - - -
27/04:30pm 14.7 WNW 14 21 1011.0 - - - - - - - - -
27/04:00pm 14.7 W 15 23 1011.0 - - - - - - - - -
27/03:30pm 14.5 W 14 20 1011.0 - - - - - - - - -
27/03:00pm 14.4 W 15 22 1010.8 - - - - - - - - -
27/02:30pm 14.4 W 15 21 1010.8 - - - - - - - - -
27/02:00pm 14.3 W 15 22 1011.0 - - - - - - - - -
27/01:30pm 14.2 W 15 23 1011.4 - - - - - - - - -
27/01:00pm 14.2 WNW 14 21 1011.6 - - - - - - - - -
27/12:30pm 13.6 W 14 22 1011.7 - - - - - - - - -
27/12:00pm 13.2 W 16 21 1012.1 - - - - - - - - -
27/11:30am 13.2 WNW 15 21 1012.1 - - - - - - - - -
27/11:00am 13.0 W 13 24 1012.1 - - - - - - - - -
27/10:30am 12.7 W 13 19 1012.3 - - - - - - - - -
27/10:00am 12.4 W 13 21 1012.3 - - - - - - - - -
27/09:30am 12.3 W 12 18 1012.2 - - - - - - - - -
27/09:00am 11.9 WSW 10 14 1012.0 - - - - - - - - -
27/08:30am 11.7 W 8 11 1011.6 - - - - - - - - -
27/08:00am 11.7 WSW 8 13 1011.2 - - - - - - - - -
27/07:30am 10.8 W 7 9 1010.9 - - - - - - - - -
27/07:00am 10.6 WSW 10 13 1010.7 - - - - - - - - -
27/06:30am 10.9 WSW 12 19 1010.3 - - - - - - - - -
27/06:00am 10.8 WSW 11 16 1009.8 - - - - - - - - -
27/05:30am 10.9 WSW 13 20 1009.1 - - - - - - - - -
27/05:00am 10.8 WSW 16 25 1009.1 - - - - - - - - -
27/04:30am 10.2 WSW 18 25 1008.8 - - - - - - - - -
27/04:00am 10.5 SW 14 21 1008.4 - - - - - - - - -
27/03:51am 10.5 SW 15 22 1008.5 - - - - - - - - -
27/03:30am 9.0 WNW 6 9 1008.3 - - - - - - - - -
27/03:00am 7.6 WNW 6 9 1008.2 - - - - - - - - -
27/02:30am 7.3 NW 6 8 1008.3 - - - - - - - - -
27/02:00am 7.5 NW 7 11 1008.4 - - - - - - - - -
27/01:30am 7.8 NW 6 10 1008.6 - - - - - - - - -
27/01:00am 7.4 NW 7 11 1008.8 - - - - - - - - -
27/12:30am 7.0 NW 7 11 1009.0 - - - - - - - - -
27/12:00am 7.3 NNW 7 11 1009.0 - - - - - - - - -
 
Date/Time
EST
Temp
°C
Wind Pressure Rain since
9am
mm
Weather Cloud Vis
km
Sea
Height
m
Swell
Dir  Spd
kts
Gust
kts
hPa Trend Height
m
Period
s
Dir
26/11:30pm 7.7 NW 5 7 1009.2 - - - - - - - - -
26/11:00pm 7.5 NW 5 7 1009.3 - - - - - - - - -
26/10:30pm 7.6 NNW 7 10 1009.3 - - - - - - - - -
26/10:00pm 8.2 NW 7 11 1009.2 - - - - - - - - -
26/09:30pm 8.3 NW 7 11 1009.2 - - - - - - - - -
26/09:00pm 8.6 NW 9 13 1009.2 - - - - - - - - -
26/08:30pm 8.5 NW 6 8 1008.9 - - - - - - - - -
26/08:00pm 9.3 NW 8 11 1008.7 - - - - - - - - -
26/07:30pm 9.5 NW 4 6 1008.4 - - - - - - - - -
26/07:00pm 9.5 W 6 8 1008.3 - - - - - - - - -
26/06:30pm 9.9 WNW 12 23 1008.0 - - - - - - - - -
26/06:00pm 10.9 WNW 13 19 1007.7 - - - - - - - - -
26/05:30pm 11.6 NW 7 11 1007.3 - - - - - - - - -
26/05:00pm 11.3 NW 9 14 1007.3 - - - - - - - - -
26/04:30pm 10.7 NW 8 14 1007.2 - - - - - - - - -
26/04:00pm 9.5 NNW 9 12 1007.6 - - - - - - - - -
26/03:30pm 9.2 NW 12 18 1008.1 - - - - - - - - -
26/03:06pm 10.3 WNW 16 28 1008.3 - - - - - - - - -
26/03:00pm 10.7 WNW 17 26 1008.1 - - - - - - - - -
26/02:30pm 11.4 NW 13 22 1007.5 - - - - - - - - -
26/02:16pm 12.1 WNW 16 29 1007.3 - - - - - - - - -
26/02:00pm 15.1 WNW 10 15 1007.0 - - - - - - - - -
26/01:30pm 15.1 NNW 16 21 1007.2 - - - - - - - - -
26/01:00pm 15.1 NNW 14 21 1007.5 - - - - - - - - -
26/12:30pm 15.4 NNW 14 20 1007.9 - - - - - - - - -
26/12:00pm 14.7 NNW 12 19 1008.4 - - - - - - - - -
26/11:30am 14.2 NW 12 18 1009.0 - - - - - - - - -
26/11:00am 14.1 NNW 13 19 1009.6 - - - - - - - - -
26/10:30am 13.7 NW 13 18 1009.7 - - - - - - - - -
26/10:00am 13.0 NNW 13 19 1010.1 - - - - - - - - -
26/09:30am 12.3 NNW 11 16 1010.6 - - - - - - - - -
26/09:00am 10.9 N 12 16 1010.6 - - - - - - - - -
26/08:30am 10.3 NNW 11 13 1010.5 - - - - - - - - -
26/08:00am 9.9 NNW 12 16 1010.6 - - - - - - - - -
26/07:30am 9.1 NNW 9 13 1011.0 - - - - - - - - -
26/07:00am 8.5 NNW 10 13 1010.9 - - - - - - - - -
26/06:30am 8.2 NNW 10 13 1010.8 - - - - - - - - -
26/06:00am 7.6 NW 7 9 1011.0 - - - - - - - - -
26/05:30am 7.4 NW 5 7 1011.1 - - - - - - - - -
26/05:00am 7.6 NW 5 7 1011.1 - - - - - - - - -
26/04:30am 7.8 NW 6 9 1011.1 - - - - - - - - -
26/04:00am 8.0 NW 6 10 1011.1 - - - - - - - - -
26/03:30am 8.2 NW 7 10 1011.3 - - - - - - - - -
26/03:00am 8.7 NNW 7 10 1011.6 - - - - - - - - -
26/02:30am 8.6 NW 6 8 1011.9 - - - - - - - - -
26/02:00am 9.0 NW 5 8 1012.3 - - - - - - - - -
26/01:30am 8.9 NNW 7 9 1012.5 - - - - - - - - -
26/01:00am 8.4 SW 3 4 1012.8 - - - - - - - - -
26/12:30am 8.7 WNW 4 6 1013.0 - - - - - - - - -
26/12:00am 8.8 NW 5 8 1013.0 - - - - - - - - -
 
Date/Time
EST
Temp
°C
Wind Pressure Rain since
9am
mm
Weather Cloud Vis
km
Sea
Height
m
Swell
Dir  Spd
kts
Gust
kts
hPa Trend Height
m
Period
s
Dir
25/11:30pm 9.3 NW 5 8 1013.2 - - - - - - - - -
25/11:00pm 9.0 NW 3 5 1013.3 - - - - - - - - -
25/10:30pm 9.5 NW 5 6 1013.5 - - - - - - - - -
25/10:00pm 10.2 NW 5 8 1013.4 - - - - - - - - -
25/09:30pm 10.2 NW 4 5 1013.4 - - - - - - - - -
25/09:00pm 10.0 WNW 2 3 1013.6 - - - - - - - - -
25/08:30pm 10.3 NW 3 4 1013.5 - - - - - - - - -
25/08:00pm 10.4 WNW 2 3 1013.5 - - - - - - - - -
25/07:30pm 10.9 WNW 3 4 1013.1 - - - - - - - - -
25/07:00pm 11.1 NW 2 3 1012.8 - - - - - - - - -
25/06:30pm 11.7 W 4 6 1012.5 - - - - - - - - -
25/06:00pm 12.2 W 6 10 1012.3 - - - - - - - - -
25/05:30pm 12.5 WSW 8 13 1012.0 - - - - - - - - -
25/05:00pm 12.8 WSW 9 13 1012.0 - - - - - - - - -
25/04:30pm 12.8 WSW 9 13 1011.7 - - - - - - - - -
25/04:00pm 12.8 WSW 10 13 1011.6 - - - - - - - - -
25/03:30pm 12.5 WSW 11 15 1011.6 - - - - - - - - -
25/03:00pm 13.1 WSW 10 16 1011.8 - - - - - - - - -
25/02:30pm 13.2 W 9 14 1011.8 - - - - - - - - -
25/02:00pm 12.6 SW 12 16 1012.0 - - - - - - - - -
25/01:30pm 12.6 SW 11 15 1012.0 - - - - - - - - -
25/01:00pm 12.6 SW 13 17 1012.0 - - - - - - - - -
25/12:30pm 12.7 WSW 14 18 1012.5 - - - - - - - - -
25/12:00pm 12.5 W 11 17 1012.4 - - - - - - - - -
25/11:30am 12.4 WSW 13 18 1012.6 - - - - - - - - -
25/11:00am 12.9 WSW 14 21 1012.6 - - - - - - - - -
25/10:30am 12.6 WSW 12 17 1012.4 - - - - - - - - -
25/10:00am 11.8 W 8 12 1012.3 - - - - - - - - -
25/09:30am 10.6 WSW 13 23 1012.3 - - - - - - - - -
25/09:00am 11.0 WSW 7 10 1011.9 - - - - - - - - -
25/08:30am 9.7 W 11 22 1011.8 - - - - - - - - -
25/08:22am 10.4 W 8 22 1011.5 - - - - - - - - -
25/08:00am 9.6 W 5 7 1011.2 - - - - - - - - -
25/07:30am 9.3 W 10 17 1010.8 - - - - - - - - -
25/07:00am 9.5 W 6 11 1010.4 - - - - - - - - -
25/06:30am 9.8 WSW 9 14 1010.1 - - - - - - - - -
25/06:00am 9.5 W 6 8 1009.6 - - - - - - - - -
25/05:30am 9.5 W 6 9 1009.5 - - - - - - - - -
25/05:00am 9.6 W 7 10 1009.1 - - - - - - - - -
25/04:30am 9.6 WSW 8 13 1008.7 - - - - - - - - -
25/04:00am 9.9 WSW 7 11 1008.5 - - - - - - - - -
25/03:30am 9.6 W 7 11 1008.1 - - - - - - - - -
25/03:00am 9.7 WSW 10 15 1008.1 - - - - - - - - -
25/02:30am 9.7 W 7 12 1008.3 - - - - - - - - -
25/02:00am 9.9 W 6 9 1008.1 - - - - - - - - -
25/01:30am 10.2 SW 10 15 1008.2 - - - - - - - - -
25/01:00am 10.1 W 6 9 1008.1 - - - - - - - - -
25/12:30am 10.4 W 7 11 1007.9 - - - - - - - - -
25/12:00am 10.3 W 6 9 1007.6 - - - - - - - - -
 
Date/Time
EST
Temp
°C
Wind Pressure Rain since
9am
mm
Weather Cloud Vis
km
Sea
Height
m
Swell
Dir  Spd
kts
Gust
kts
hPa Trend Height
m
Period
s
Dir
24/11:30pm 11.0 WSW 8 12 1007.6 - - - - - - - - -
24/11:00pm 10.9 W 5 7 1007.6 - - - - - - - - -
24/10:30pm 11.1 WSW 6 10 1007.4 - - - - - - - - -
24/10:00pm 11.1 WSW 6 9 1007.2 - - - - - - - - -
24/09:30pm 11.4 WSW 8 11 1007.1 - - - - - - - - -
24/09:00pm 11.8 WSW 12 16 1006.7 - - - - - - - - -
24/08:30pm 12.3 SW 9 13 1006.3 - - - - - - - - -
24/08:00pm 12.2 WSW 8 11 1006.0 - - - - - - - - -
24/07:30pm 12.4 WSW 10 17 1005.6 - - - - - - - - -
24/07:00pm 12.6 SW 14 20 1004.9 - - - - - - - - -
24/06:30pm 12.8 SW 16 22 1004.3 - - - - - - - - -
24/06:00pm 12.3 WSW 15 20 1003.7 - - - - - - - - -
24/05:30pm 12.7 WSW 15 22 1003.0 - - - - - - - - -

Other Formats:

Comma delimited format used in spreadsheet applications
http://www.bom.gov.au/fwo/IDV60701/IDV60701.95826.axf

JavaScript Object Notation format (JSON) in row-major order
http://www.bom.gov.au/fwo/IDV60701/IDV60701.95826.json